Time;durP1;ratioP1;P1;durP2;ratioP2;P2;SDS_P1;SDS_P2;PMS_P1;PMS_P2;Temp;Humidity;BMP_temperature;BMP_pressure;BME280_temperature;BME280_humidity;BME280_pressure;Samples;Min_cycle;Max_cycle;Signal;HPM_P1;HPM_P2
2022/08/16 00:01:48;;;;;;;;;;;;;;;23.31;100.00;99865.16;10027650;29;19942;-64
2022/08/16 00:06:51;;;;;;;;;;;;;;;23.23;100.00;99856.88;10027263;29;19928;-63
2022/08/16 00:11:56;;;;;;;;;;;;;;;23.19;100.00;99856.25;10027245;29;20352;-65
2022/08/16 00:17:02;;;;;;;;;;;;;;;23.16;100.00;99859.09;10027067;29;19929;-63
2022/08/16 00:22:21;;;;;;;;;;;;;;;23.08;100.00;99860.56;10027498;29;19988;-63
2022/08/16 00:27:27;;;;;;;;;;;;;;;22.99;100.00;99866.53;10026668;29;19928;-64
2022/08/16 00:32:34;;;;;;;;;;;;;;;22.96;100.00;99879.94;10026559;29;19939;-62
2022/08/16 00:37:37;;;;;;;;;;;;;;;23.08;100.00;99884.41;10026291;29;19929;-66
2022/08/16 00:42:59;;;;;;;;;;;;;;;22.99;100.00;99883.22;10026050;29;19936;-66
2022/08/16 00:48:06;;;;;;;;;;;;;;;23.03;100.00;99878.56;10026061;29;19928;-64
2022/08/16 00:53:30;;;;;;;;;;;;;;;23.00;100.00;99879.66;10026083;29;19932;-67
2022/08/16 00:58:35;;;;;;;;;;;;;;;22.96;100.00;99878.16;10039697;29;19959;-64
2022/08/16 01:03:41;;;;;;;;;;;;;;;22.90;100.00;99878.56;10063449;29;20377;-65
2022/08/16 01:08:46;;;;;;;;;;;;;;;22.97;100.00;99879.84;10063406;29;19980;-65
2022/08/16 01:13:56;;;;;;;;;;;;;;;22.92;100.00;99869.56;10063207;29;19928;-67
2022/08/16 01:19:03;;;;;;;;;;;;;;;22.92;100.00;99877.50;10063571;29;19940;-64
2022/08/16 01:24:17;;;;;;;;;;;;;;;22.92;100.00;99871.38;10062957;29;20343;-64
2022/08/16 01:29:44;;;;;;;;;;;;;;;22.73;100.00;99869.13;10062629;29;20254;-64
2022/08/16 01:35:01;;;;;;;;;;;;;;;22.87;100.00;99855.81;10063585;29;20357;-71
2022/08/16 01:40:07;;;;;;;;;;;;;;;22.95;100.00;99843.84;10065352;29;19928;-70
2022/08/16 01:45:10;;;;;;;;;;;;;;;22.95;100.00;99847.34;10065133;29;19928;-72
2022/08/16 01:50:13;;;;;;;;;;;;;;;22.92;100.00;99846.72;10064765;29;20369;-66
2022/08/16 01:55:39;;;;;;;;;;;;;;;22.90;100.00;99839.72;10065271;29;20370;-70
2022/08/16 02:00:42;;;;;;;;;;;;;;;22.86;100.00;99834.75;10064714;29;19965;-68
2022/08/16 02:05:48;;;;;;;;;;;;;;;22.83;100.00;99824.38;10064713;29;20228;-72
2022/08/16 02:10:55;;;;;;;;;;;;;;;22.84;100.00;99836.66;10064211;29;20339;-70
2022/08/16 02:15:58;;;;;;;;;;;;;;;22.79;100.00;99828.19;10063440;29;19947;-67
2022/08/16 02:21:02;;;;;;;;;;;;;;;22.78;100.00;99831.75;10063997;29;20255;-67
2022/08/16 02:26:07;;;;;;;;;;;;;;;22.80;100.00;99817.47;10063812;29;20381;-68
2022/08/16 02:31:17;;;;;;;;;;;;;;;22.77;100.00;99823.00;10064066;29;20355;-68
2022/08/16 02:36:20;;;;;;;;;;;;;;;22.79;100.00;99815.78;10063567;29;19932;-67
2022/08/16 02:41:48;;;;;;;;;;;;;;;22.77;100.00;99825.63;10063187;29;19938;-68
2022/08/16 02:46:55;;;;;;;;;;;;;;;22.68;100.00;99828.91;10063205;29;19928;-69
2022/08/16 02:51:58;;;;;;;;;;;;;;;22.67;100.00;99823.72;10062963;29;20258;-69
2022/08/16 02:57:04;;;;;;;;;;;;;;;22.66;100.00;99822.00;10062809;29;19928;-68
2022/08/16 03:02:10;;;;;;;;;;;;;;;22.61;100.00;99819.69;10062495;29;20005;-69
2022/08/16 03:07:18;;;;;;;;;;;;;;;22.56;100.00;99820.94;10062223;29;19928;-68
2022/08/16 03:12:30;;;;;;;;;;;;;;;22.54;100.00;99822.84;10062598;29;19928;-74
2022/08/16 03:17:39;;;;;;;;;;;;;;;22.53;100.00;99823.78;10062253;29;19991;-72
2022/08/16 03:22:55;;;;;;;;;;;;;;;22.53;100.00;99821.13;10062088;29;19928;-68
2022/08/16 03:28:00;;;;;;;;;;;;;;;22.50;100.00;99821.34;10061928;29;20225;-67
2022/08/16 03:33:03;;;;;;;;;;;;;;;22.46;100.00;99828.63;10061999;29;19928;-72
2022/08/16 03:38:08;;;;;;;;;;;;;;;22.52;100.00;99830.84;10061759;29;19928;-69
2022/08/16 03:43:33;;;;;;;;;;;;;;;22.51;100.00;99829.16;10061744;29;20418;-69
2022/08/16 03:48:54;;;;;;;;;;;;;;;22.55;100.00;99830.69;10061616;29;19928;-69
2022/08/16 03:53:57;;;;;;;;;;;;;;;22.55;100.00;99835.13;10061629;29;19928;-69
2022/08/16 03:59:04;;;;;;;;;;;;;;;22.56;100.00;99848.25;10061388;29;19928;-69
2022/08/16 04:04:07;;;;;;;;;;;;;;;22.59;100.00;99855.97;10061271;29;19939;-70
2022/08/16 04:09:12;;;;;;;;;;;;;;;22.59;100.00;99855.97;10060893;29;20335;-71
2022/08/16 04:14:16;;;;;;;;;;;;;;;22.61;100.00;99856.72;10061292;29;19928;-69
2022/08/16 04:19:35;;;;;;;;;;;;;;;22.59;100.00;99857.78;10061326;29;20359;-71
2022/08/16 04:24:38;;;;;;;;;;;;;;;22.54;100.00;99866.03;10061176;29;19954;-69
2022/08/16 04:29:43;;;;;;;;;;;;;;;22.59;100.00;99865.75;10060781;29;19938;-69
2022/08/16 04:34:48;;;;;;;;;;;;;;;22.55;100.00;99865.09;10061040;29;20274;-72
2022/08/16 04:39:51;;;;;;;;;;;;;;;22.55;100.00;99856.28;10062682;29;19932;-68
2022/08/16 04:45:00;;;;;;;;;;;;;;;22.56;100.00;99858.84;10067281;29;19992;-67
2022/08/16 04:50:05;;;;;;;;;;;;;;;22.60;100.00;99860.34;10067497;29;19928;-68
2022/08/16 04:55:10;;;;;;;;;;;;;;;22.55;100.00;99862.44;10067229;29;20254;-68
2022/08/16 05:00:17;;;;;;;;;;;;;;;22.66;100.00;99870.50;10066935;29;19938;-68
2022/08/16 05:05:35;;;;;;;;;;;;;;;22.68;100.00;99865.94;10066809;29;19938;-68
2022/08/16 05:10:57;;;;;;;;;;;;;;;22.77;100.00;99867.13;10066422;29;19938;-67
2022/08/16 05:16:04;;;;;;;;;;;;;;;22.83;100.00;99877.31;10066291;29;19935;-71
2022/08/16 05:21:07;;;;;;;;;;;;;;;22.89;100.00;99877.72;10066055;29;20323;-70
2022/08/16 05:26:14;;;;;;;;;;;;;;;22.92;100.00;99881.97;10065970;29;19928;-68
2022/08/16 05:31:23;;;;;;;;;;;;;;;22.96;100.00;99886.09;10065730;29;19928;-69
2022/08/16 05:36:33;;;;;;;;;;;;;;;23.01;100.00;99883.13;10065581;29;19932;-68
2022/08/16 05:41:39;;;;;;;;;;;;;;;23.08;100.00;99897.63;10065467;29;19928;-68
2022/08/16 05:46:49;;;;;;;;;;;;;;;23.07;100.00;99891.53;10065228;29;19928;-68
2022/08/16 05:51:54;;;;;;;;;;;;;;;23.11;100.00;99892.16;9720763;29;9999915;-67
2022/08/16 05:56:57;;;;;;;;;;;;;;;23.15;100.00;99889.19;10023619;29;20069;-67
2022/08/16 06:02:03;;;;;;;;;;;;;;;23.23;100.00;99886.84;10023079;29;19932;-67
2022/08/16 06:07:08;;;;;;;;;;;;;;;23.22;100.00;99879.84;10023105;29;19940;-71
2022/08/16 06:12:28;;;;;;;;;;;;;;;23.27;100.00;99879.53;10022805;29;19932;-71
2022/08/16 06:17:34;;;;;;;;;;;;;;;23.34;100.00;99875.53;10022697;29;19970;-68
2022/08/16 06:22:46;;;;;;;;;;;;;;;23.43;100.00;99877.53;10022946;29;20400;-72
2022/08/16 06:28:00;;;;;;;;;;;;;;;23.53;100.00;99868.84;10022156;29;19929;-73
2022/08/16 06:33:12;;;;;;;;;;;;;;;23.59;100.00;99879.00;10022269;29;19939;-69
2022/08/16 06:38:23;;;;;;;;;;;;;;;23.67;100.00;99870.50;10022032;29;19940;-70
2022/08/16 06:43:36;;;;;;;;;;;;;;;23.77;100.00;99872.38;10021625;29;19939;-67
2022/08/16 06:48:42;;;;;;;;;;;;;;;23.85;100.00;99870.03;10022314;29;19956;-69
2022/08/16 06:53:52;;;;;;;;;;;;;;;23.98;100.00;99877.94;10048377;29;19932;-74
2022/08/16 06:58:55;;;;;;;;;;;;;;;24.04;100.00;99880.16;10061224;29;19928;-72
2022/08/16 07:04:00;;;;;;;;;;;;;;;24.15;100.00;99882.03;10061288;29;19934;-72
